Terminal Aerodrome Forecast
Issued by NWS Blacksburg, VA

Current Version | Previous Version | Graphics & Text | Print | Product List | Glossary On
Versions: 1 2 3 4 5 6 7 8 9 10 11 12 13 14 15 16 17 18 19 20 21 22 23 24 25 26 27 28 29 30 31 32 33 34 35 36 37 38 39 40 41 42 43 44
000
FTUS41 KRNK 191010 AAB
TAFBLF
TAF AMD
KBLF 191010Z 1910/2006 29005KT P6SM OVC013
     FM191200 29006KT P6SM BKN007
     FM191500 29009G17KT P6SM BKN020
     FM191700 29010G18KT P6SM BKN040
     FM192000 30009KT P6SM SCT040
     FM192300 29005KT P6SM FEW040=

USA.gov is the U.S. government's official web portal to all federal, state and local government web resources and services.